RKPC/CJU METAR and TAF weather

Enter ICAO airport designator
Station Type Date Time Source
RKPC METAR 2024/04/23 04:00 UTC NOAA

RKPC 230400Z 09018KT 9999 BKN014 BKN025 17/13 Q1010 NOSIG


Station Type Date Time Source
RKPC Decoded METAR 2024/04/23 04:00 UTC NOAA

Cheju International Airport, Korea, South (RKPC) 33-30N 126-30E 28M
Apr 23, 2024 - 12:00 AM EDT / 2024.04.23 0400 UTC
Wind: from the E (090 degrees) at 21 MPH (18 KT):0
Visibility: greater than 7 mile(s):0
Sky conditions: mostly cloudy
Temperature: 62 F (17 C)
Dew Point: 55 F (13 C)
Relative Humidity: 77%
Pressure (altimeter): 29.83 in. Hg (1010 hPa)
ob: RKPC 230400Z 09018KT 9999 BKN014 BKN025 17/13 Q1010 NOSIG
cycle: 4

Station Type Date Time Source
RKPC TAF 2024/04/23 00:28 UTC NOAA